createdAt,value
2018-12-08T00:01:37.030Z,-3.01
2018-12-08T00:04:05.759Z,-3.02
2018-12-08T00:06:34.558Z,-3.11
2018-12-08T00:09:03.766Z,-3.12
2018-12-08T00:11:32.651Z,-3.11
2018-12-08T00:14:02.133Z,-3.06
2018-12-08T00:16:30.910Z,-3.02
2018-12-08T00:18:59.832Z,-2.98
2018-12-08T00:21:28.863Z,-2.96
2018-12-08T00:23:57.723Z,-2.94
2018-12-08T00:26:26.543Z,-2.93
2018-12-08T00:28:55.655Z,-2.91
2018-12-08T00:31:35.380Z,-2.90
2018-12-08T00:34:04.033Z,-2.88
2018-12-08T00:36:32.629Z,-2.86
2018-12-08T00:39:01.498Z,-2.84
2018-12-08T00:41:30.619Z,-2.81
2018-12-08T00:43:59.582Z,-2.82
2018-12-08T00:46:28.727Z,-2.80
2018-12-08T00:48:57.496Z,-2.78
2018-12-08T00:51:26.512Z,-2.78
2018-12-08T00:53:57.902Z,-2.76
2018-12-08T00:56:26.915Z,-2.80
2018-12-08T00:58:55.826Z,-2.80
2018-12-08T01:01:25.100Z,-2.81
2018-12-08T01:03:54.322Z,-2.80
2018-12-08T01:06:23.739Z,-2.78
2018-12-08T01:08:52.834Z,-2.74
2018-12-08T01:11:21.835Z,-2.71
2018-12-08T01:13:51.107Z,-2.71
2018-12-08T01:16:19.963Z,-2.68
2018-12-08T01:18:48.814Z,-2.66
2018-12-08T01:21:17.719Z,-2.64
2018-12-08T01:23:46.679Z,-2.63
2018-12-08T01:26:15.690Z,-2.62
2018-12-08T01:28:44.591Z,-2.64
2018-12-08T01:31:13.423Z,-2.62
2018-12-08T01:33:42.441Z,-2.58
2018-12-08T01:36:11.454Z,-2.55
2018-12-08T01:38:40.180Z,-2.55
2018-12-08T01:41:09.120Z,-2.53
2018-12-08T01:43:37.866Z,-2.49
2018-12-08T01:46:06.630Z,-2.50
2018-12-08T01:48:35.285Z,-2.52
2018-12-08T01:51:03.991Z,-2.52
2018-12-08T01:53:32.871Z,-2.52
2018-12-08T01:56:02.019Z,-2.49
2018-12-08T01:58:30.989Z,-3.23
2018-12-08T02:00:59.917Z,-2.50
2018-12-08T02:03:29.021Z,-2.45
2018-12-08T02:05:57.823Z,-2.43
2018-12-08T02:08:27.010Z,-2.43
2018-12-08T02:10:56.041Z,-2.43
2018-12-08T02:13:24.975Z,-2.42
2018-12-08T02:15:53.970Z,-2.43
2018-12-08T02:18:23.230Z,-4.39
2018-12-08T02:20:51.983Z,-2.41
2018-12-08T02:23:20.650Z,-2.38
2018-12-08T02:25:49.647Z,-2.34
2018-12-08T02:28:18.382Z,-2.33
2018-12-08T02:30:47.301Z,-2.35
2018-12-08T02:33:15.993Z,-2.36
2018-12-08T02:36:47.042Z,-2.34
2018-12-08T02:39:16.269Z,-2.33
2018-12-08T02:41:45.071Z,-2.31
2018-12-08T02:44:13.767Z,-2.28
2018-12-08T02:46:42.460Z,-2.27
2018-12-08T02:49:11.759Z,-2.26
2018-12-08T02:51:40.596Z,-2.30
2018-12-08T02:54:09.579Z,-2.32
2018-12-08T02:56:38.802Z,-2.29
2018-12-08T02:59:07.674Z,-2.27
2018-12-08T03:01:36.535Z,-2.28
2018-12-08T03:04:05.529Z,-2.28
2018-12-08T03:06:34.232Z,-2.27
2018-12-08T03:09:03.024Z,-2.22
2018-12-08T03:11:32.172Z,-2.21
2018-12-08T03:14:01.017Z,-2.20
2018-12-08T03:16:29.898Z,-2.18
2018-12-08T03:18:58.647Z,-2.17
2018-12-08T03:21:27.642Z,-2.15
2018-12-08T03:23:56.567Z,-2.15
2018-12-08T03:26:25.269Z,-2.13
2018-12-08T03:28:54.220Z,-2.13
2018-12-08T03:31:23.139Z,-2.12
2018-12-08T03:33:53.217Z,-2.08
2018-12-08T03:36:21.955Z,-2.06
2018-12-08T03:38:50.768Z,-2.04
2018-12-08T03:41:19.450Z,-2.03
2018-12-08T03:43:48.315Z,-2.01
2018-12-08T03:46:17.255Z,-2.00
2018-12-08T03:48:46.007Z,-2.02
2018-12-08T03:51:14.890Z,-2.03
2018-12-08T03:53:43.625Z,-2.03
2018-12-08T03:56:12.460Z,-2.05
2018-12-08T03:58:41.316Z,-2.00
2018-12-08T04:01:10.214Z,-1.96
2018-12-08T04:03:39.125Z,-1.97
2018-12-08T04:06:08.161Z,-1.96
2018-12-08T04:08:37.180Z,-1.93
2018-12-08T04:11:05.784Z,-1.93
2018-12-08T04:13:34.557Z,-1.93
2018-12-08T04:16:03.539Z,-1.89
2018-12-08T04:18:32.387Z,-1.87
2018-12-08T04:21:01.541Z,-1.86
2018-12-08T04:23:30.165Z,-1.89
2018-12-08T04:25:58.959Z,-1.86
2018-12-08T04:28:27.670Z,-1.82
2018-12-08T04:30:56.502Z,-1.81
2018-12-08T04:33:25.401Z,-1.77
2018-12-08T04:35:54.796Z,-2.36
2018-12-08T04:38:23.974Z,-1.76
2018-12-08T04:41:23.558Z,-1.79
2018-12-08T04:43:52.277Z,-1.82
2018-12-08T04:46:20.991Z,-1.79
2018-12-08T04:48:49.991Z,-1.76
2018-12-08T04:51:18.983Z,-1.90
2018-12-08T04:53:47.657Z,-1.68
2018-12-08T04:56:16.647Z,-1.65
2018-12-08T04:58:45.443Z,-1.63
2018-12-08T05:01:14.117Z,-1.62
2018-12-08T05:03:42.812Z,-1.60
2018-12-08T05:06:11.743Z,-1.58
2018-12-08T05:08:40.428Z,-1.60
2018-12-08T05:11:09.182Z,-1.59
2018-12-08T05:13:37.948Z,-1.57
2018-12-08T05:16:06.774Z,-1.59
2018-12-08T05:18:35.421Z,-1.61
2018-12-08T05:21:04.321Z,-1.58
2018-12-08T05:23:33.087Z,-1.59
2018-12-08T05:26:01.954Z,-1.64
2018-12-08T05:28:30.695Z,-1.59
2018-12-08T05:30:59.578Z,-1.53
2018-12-08T05:33:29.010Z,-1.52
2018-12-08T05:35:58.009Z,-1.52
2018-12-08T05:38:26.689Z,-1.52
2018-12-08T05:40:55.348Z,-1.50
2018-12-08T05:43:24.128Z,-1.49
2018-12-08T05:45:52.942Z,-1.46
2018-12-08T05:48:22.279Z,-1.43
2018-12-08T05:50:51.097Z,-1.44
2018-12-08T05:53:19.899Z,-1.46
2018-12-08T05:55:48.757Z,-1.46
2018-12-08T05:58:18.216Z,-1.45
2018-12-08T06:00:46.882Z,-1.44
2018-12-08T06:03:15.472Z,-1.41
2018-12-08T06:05:44.239Z,-1.39
2018-12-08T06:08:13.293Z,-1.41
2018-12-08T06:10:42.403Z,-1.42
2018-12-08T06:13:11.505Z,-1.40
2018-12-08T06:15:40.171Z,-1.38
2018-12-08T06:18:09.069Z,-1.36
2018-12-08T06:20:38.113Z,-1.35
2018-12-08T06:23:07.074Z,-1.32
2018-12-08T06:25:38.100Z,-1.28
2018-12-08T06:28:28.796Z,-1.27
2018-12-08T06:30:57.817Z,-1.25
2018-12-08T06:33:26.582Z,-2.04
2018-12-08T06:35:55.252Z,-1.23
2018-12-08T06:38:25.378Z,-1.24
2018-12-08T06:40:54.241Z,-1.26
2018-12-08T06:43:22.900Z,-1.26
2018-12-08T06:45:51.741Z,-1.27
2018-12-08T06:48:20.534Z,-1.29
2018-12-08T06:50:49.400Z,-1.31
2018-12-08T06:53:18.349Z,-1.33
2018-12-08T06:55:47.789Z,-1.31
2018-12-08T06:58:16.767Z,-1.29
2018-12-08T07:00:45.717Z,-1.26
2018-12-08T07:03:14.529Z,-1.26
2018-12-08T07:05:43.603Z,-1.26
2018-12-08T07:08:12.416Z,-1.25
2018-12-08T07:10:41.102Z,-1.21
2018-12-08T07:13:10.130Z,-1.20
2018-12-08T07:15:38.991Z,-1.18
2018-12-08T07:18:07.773Z,-1.14
2018-12-08T07:20:36.543Z,-1.17
2018-12-08T07:23:05.688Z,-1.15
2018-12-08T07:25:34.770Z,-1.14
2018-12-08T07:28:03.429Z,-1.14
2018-12-08T07:30:32.425Z,-1.14
2018-12-08T07:33:01.129Z,-1.13
2018-12-08T07:35:29.909Z,-1.14
2018-12-08T07:37:58.689Z,-1.18
2018-12-08T07:40:27.815Z,-1.22
2018-12-08T07:42:57.005Z,-1.19
2018-12-08T07:45:26.457Z,-1.16
2018-12-08T07:47:55.579Z,-1.16
2018-12-08T07:50:24.446Z,-1.17
2018-12-08T07:52:53.196Z,-1.12
2018-12-08T07:55:22.226Z,-1.10
2018-12-08T07:57:50.979Z,-1.08
2018-12-08T08:00:19.807Z,-1.07
2018-12-08T08:02:48.627Z,-1.05
2018-12-08T08:05:17.419Z,-1.04
2018-12-08T08:07:46.115Z,-1.03
2018-12-08T08:10:14.910Z,-1.02
2018-12-08T08:12:43.609Z,-1.03
2018-12-08T08:15:12.787Z,-1.00
2018-12-08T08:17:41.477Z,-0.98
2018-12-08T08:20:11.434Z,-0.96
2018-12-08T08:22:40.334Z,-0.94
2018-12-08T08:25:10.970Z,-0.90
2018-12-08T08:27:39.722Z,-0.87
2018-12-08T08:30:11.176Z,-0.83
2018-12-08T08:32:40.157Z,-0.85
2018-12-08T08:35:09.502Z,-0.77
2018-12-08T08:37:38.231Z,-0.69
2018-12-08T08:40:09.362Z,-0.63
2018-12-08T08:42:38.144Z,-0.59
2018-12-08T08:45:07.794Z,-0.56
2018-12-08T08:47:36.531Z,-0.51
2018-12-08T08:50:07.546Z,-0.44
2018-12-08T08:52:36.294Z,-0.38
2018-12-08T08:55:05.755Z,-0.34
2018-12-08T08:57:34.857Z,-0.32
2018-12-08T09:00:04.522Z,-0.27
2018-12-08T09:02:33.275Z,-0.23
2018-12-08T09:05:02.161Z,-0.20
2018-12-08T09:07:31.304Z,-0.16
2018-12-08T09:10:00.184Z,-0.13
2018-12-08T09:12:29.057Z,-0.10
2018-12-08T09:14:57.744Z,-0.13
2018-12-08T09:17:26.408Z,-0.13
2018-12-08T09:19:55.472Z,-0.14
2018-12-08T09:22:24.314Z,-0.17
2018-12-08T09:24:53.545Z,-0.15
2018-12-08T09:27:22.533Z,-0.15
2018-12-08T09:29:51.374Z,-0.11
2018-12-08T09:32:20.519Z,-0.04
2018-12-08T09:34:49.484Z,-0.04
2018-12-08T09:37:18.443Z,-0.04
2018-12-08T09:39:47.274Z,-0.03
2018-12-08T09:42:16.102Z,-0.01
2018-12-08T09:44:44.886Z,0.02
2018-12-08T09:47:13.725Z,0.04
2018-12-08T09:49:42.640Z,0.03
2018-12-08T09:52:11.438Z,0.03
2018-12-08T09:54:40.653Z,0.02
2018-12-08T09:57:09.314Z,0.04
2018-12-08T09:59:38.011Z,0.05
2018-12-08T10:02:07.053Z,0.07
2018-12-08T10:04:35.852Z,0.09
2018-12-08T10:07:04.523Z,0.10
2018-12-08T10:09:33.292Z,0.11
2018-12-08T10:12:02.251Z,0.10
2018-12-08T10:14:30.958Z,0.09
2018-12-08T10:16:59.807Z,0.13
2018-12-08T10:19:28.545Z,0.16
2018-12-08T10:21:57.167Z,0.17
2018-12-08T10:24:26.038Z,0.18
2018-12-08T10:26:55.259Z,0.20
2018-12-08T10:29:24.063Z,0.24
2018-12-08T10:31:52.813Z,0.25
2018-12-08T10:34:21.611Z,0.26
2018-12-08T10:37:53.801Z,0.28
2018-12-08T10:40:22.597Z,0.30
2018-12-08T10:42:51.274Z,0.32
2018-12-08T10:45:19.875Z,0.36
2018-12-08T10:47:48.850Z,0.41
2018-12-08T10:50:17.569Z,0.40
2018-12-08T10:52:46.289Z,0.43
2018-12-08T10:55:15.035Z,0.47
2018-12-08T10:57:43.862Z,0.50
2018-12-08T11:00:17.666Z,0.48
2018-12-08T11:02:53.428Z,0.52
2018-12-08T11:05:22.473Z,0.51
2018-12-08T11:07:51.344Z,0.56
2018-12-08T11:10:20.126Z,0.57
2018-12-08T11:12:49.150Z,0.58
2018-12-08T11:15:17.853Z,0.60
2018-12-08T11:17:46.685Z,0.59
2018-12-08T11:20:15.484Z,0.63
2018-12-08T11:22:44.186Z,0.62
2018-12-08T11:25:13.213Z,0.64
2018-12-08T11:27:42.490Z,0.67
2018-12-08T11:30:11.409Z,0.67
2018-12-08T11:32:40.106Z,0.69
2018-12-08T11:35:08.952Z,0.68
2018-12-08T11:37:37.684Z,0.69
2018-12-08T11:40:06.594Z,0.68
2018-12-08T11:42:35.453Z,0.67
2018-12-08T11:45:04.524Z,0.70
2018-12-08T11:47:33.431Z,0.66
2018-12-08T11:50:02.154Z,0.65
2018-12-08T11:52:30.893Z,0.67
2018-12-08T11:54:59.608Z,0.65
2018-12-08T11:57:28.570Z,0.59
2018-12-08T11:59:57.321Z,0.61
2018-12-08T12:02:26.285Z,0.62
2018-12-08T12:04:55.078Z,0.62
2018-12-08T12:07:23.781Z,0.62
2018-12-08T12:09:52.896Z,0.65
2018-12-08T12:12:21.668Z,0.66
2018-12-08T12:14:50.763Z,0.65
2018-12-08T12:17:19.649Z,0.65
2018-12-08T12:19:48.357Z,0.19
2018-12-08T12:22:17.214Z,0.66
2018-12-08T12:28:16.813Z,0.68
2018-12-08T12:30:45.396Z,0.69
2018-12-08T12:33:14.364Z,0.69
2018-12-08T12:35:43.117Z,0.69
2018-12-08T12:38:12.009Z,0.63
2018-12-08T12:40:40.863Z,0.65
2018-12-08T12:43:09.522Z,0.67
2018-12-08T12:45:38.253Z,0.68
2018-12-08T12:48:07.230Z,0.67
2018-12-08T12:50:35.962Z,0.68
2018-12-08T12:53:04.575Z,0.70
2018-12-08T12:55:33.427Z,0.65
2018-12-08T12:58:02.059Z,0.67
2018-12-08T13:00:30.753Z,0.69
2018-12-08T13:02:59.476Z,0.70
2018-12-08T13:05:28.109Z,0.67
2018-12-08T13:07:56.696Z,0.69
2018-12-08T13:10:25.442Z,0.74
2018-12-08T13:12:54.240Z,0.73
2018-12-08T13:15:22.916Z,0.72
2018-12-08T13:17:51.797Z,0.70
2018-12-08T13:20:20.448Z,0.68
2018-12-08T13:22:49.156Z,0.65
2018-12-08T13:25:26.408Z,0.64
2018-12-08T13:27:55.094Z,0.67
2018-12-08T13:30:30.446Z,0.70
2018-12-08T13:32:59.240Z,0.70
2018-12-08T13:35:52.843Z,0.69
2018-12-08T13:38:23.346Z,0.68
2018-12-08T13:40:52.386Z,0.69
2018-12-08T13:43:21.307Z,0.70
2018-12-08T13:45:49.969Z,0.67
2018-12-08T13:48:20.640Z,0.67
2018-12-08T13:50:49.716Z,0.64
2018-12-08T13:53:18.385Z,0.68
2018-12-08T13:55:47.177Z,0.68
2018-12-08T13:58:16.151Z,0.71
2018-12-08T14:00:44.826Z,0.70
2018-12-08T14:03:13.573Z,0.70
2018-12-08T14:05:42.537Z,0.73
2018-12-08T14:08:11.331Z,0.71
2018-12-08T14:10:40.081Z,0.74
2018-12-08T14:13:08.768Z,0.77
2018-12-08T14:15:37.452Z,0.75
2018-12-08T14:18:06.408Z,0.77
2018-12-08T14:20:35.473Z,0.77
2018-12-08T14:23:04.196Z,0.75
2018-12-08T14:25:33.426Z,0.76
2018-12-08T14:28:02.541Z,0.80
2018-12-08T14:30:31.492Z,0.77
2018-12-08T14:33:00.195Z,0.81
2018-12-08T14:35:28.926Z,0.80
2018-12-08T14:37:57.685Z,0.78
2018-12-08T14:40:26.831Z,0.81
2018-12-08T14:42:55.794Z,0.77
2018-12-08T14:45:24.559Z,0.81
2018-12-08T14:47:53.296Z,0.80
2018-12-08T14:50:22.033Z,0.82
2018-12-08T14:52:50.822Z,0.83
2018-12-08T14:55:19.662Z,0.78
2018-12-08T14:57:48.404Z,0.77
2018-12-08T15:00:17.148Z,0.76
2018-12-08T15:02:46.005Z,0.79
2018-12-08T15:05:14.865Z,0.78
2018-12-08T15:07:44.097Z,0.76
2018-12-08T15:10:13.895Z,0.80
2018-12-08T15:12:42.737Z,0.78
2018-12-08T15:15:11.860Z,0.80
2018-12-08T15:17:41.128Z,0.81
2018-12-08T15:20:10.531Z,0.83
2018-12-08T15:22:39.691Z,0.80
2018-12-08T15:25:10.167Z,0.76
2018-12-08T15:27:39.125Z,0.75
2018-12-08T15:30:10.168Z,0.73
2018-12-08T15:32:38.980Z,0.74
2018-12-08T15:35:10.136Z,0.78
2018-12-08T15:37:39.829Z,0.74
2018-12-08T15:40:10.858Z,0.77
2018-12-08T15:42:40.249Z,0.77
2018-12-08T15:45:11.055Z,0.78
2018-12-08T15:47:39.816Z,0.77
2018-12-08T15:50:10.253Z,0.75
2018-12-08T15:52:39.040Z,0.75
2018-12-08T15:55:08.271Z,0.78
2018-12-08T15:57:38.416Z,0.79
2018-12-08T16:00:10.717Z,0.80
2018-12-08T16:02:39.968Z,0.80
2018-12-08T16:05:09.419Z,0.82
2018-12-08T16:07:38.179Z,0.79
2018-12-08T16:10:07.958Z,0.80
2018-12-08T16:12:37.353Z,0.78
2018-12-08T16:15:07.896Z,0.79
2018-12-08T16:17:36.742Z,0.76
2018-12-08T16:20:08.122Z,0.83
2018-12-08T16:22:37.059Z,0.85
2018-12-08T16:25:06.284Z,0.82
2018-12-08T16:27:35.544Z,0.82
2018-12-08T16:30:05.412Z,0.82
2018-12-08T16:32:34.379Z,0.83
2018-12-08T16:35:03.586Z,0.88
2018-12-08T16:37:32.328Z,0.86
2018-12-08T16:40:01.127Z,0.80
2018-12-08T16:42:30.040Z,0.78
2018-12-08T16:44:59.121Z,0.78
2018-12-08T16:47:28.420Z,0.82
2018-12-08T16:49:57.469Z,0.82
2018-12-08T16:52:26.539Z,0.78
2018-12-08T16:54:55.738Z,0.82
2018-12-08T16:57:24.921Z,0.83
2018-12-08T16:59:53.922Z,0.83
2018-12-08T17:02:22.772Z,0.83
2018-12-08T17:04:51.401Z,0.84
2018-12-08T17:07:22.459Z,0.83
2018-12-08T17:09:51.150Z,0.84
2018-12-08T17:12:19.928Z,0.83
2018-12-08T17:14:49.513Z,0.84
2018-12-08T17:17:18.323Z,0.80
2018-12-08T17:19:49.248Z,0.78
2018-12-08T17:22:18.729Z,0.76
2018-12-08T17:24:47.886Z,0.76
2018-12-08T17:27:17.003Z,0.72
2018-12-08T17:29:45.856Z,0.77
2018-12-08T17:32:14.617Z,0.81
2018-12-08T17:34:44.150Z,0.76
2018-12-08T17:37:12.935Z,0.73
2018-12-08T17:39:41.950Z,0.74
2018-12-08T17:42:11.077Z,0.76
2018-12-08T17:44:40.264Z,0.75
2018-12-08T17:47:09.449Z,0.75
2018-12-08T17:49:38.514Z,0.79
2018-12-08T17:52:08.413Z,0.78
2018-12-08T17:54:37.087Z,0.76
2018-12-08T17:57:05.781Z,0.73
2018-12-08T17:59:34.665Z,0.77
2018-12-08T18:02:03.496Z,0.73
2018-12-08T18:04:32.454Z,0.75
2018-12-08T18:07:02.928Z,0.76
2018-12-08T18:09:32.168Z,0.76
2018-12-08T18:12:01.305Z,0.77
2018-12-08T18:14:30.500Z,0.80
2018-12-08T18:16:59.204Z,0.73
2018-12-08T18:19:27.976Z,0.75
2018-12-08T18:21:57.073Z,0.79
2018-12-08T18:24:25.819Z,0.76
2018-12-08T18:26:54.831Z,0.78
2018-12-08T18:29:23.607Z,0.78
2018-12-08T18:31:52.276Z,0.78
2018-12-08T18:34:21.011Z,0.76
2018-12-08T18:36:49.659Z,0.77
2018-12-08T18:39:18.511Z,0.81
2018-12-08T18:41:47.190Z,0.80
2018-12-08T18:44:15.781Z,0.81
2018-12-08T18:46:44.897Z,0.77
2018-12-08T18:49:13.768Z,0.78
2018-12-08T18:51:42.651Z,0.72
2018-12-08T18:54:11.610Z,0.75
2018-12-08T18:56:40.327Z,0.74
2018-12-08T18:59:09.210Z,0.70
2018-12-08T19:01:38.443Z,0.74
2018-12-08T19:04:07.178Z,0.77
2018-12-08T19:06:36.029Z,0.74
2018-12-08T19:09:06.344Z,0.75
2018-12-08T19:11:34.974Z,0.73
2018-12-08T19:14:03.754Z,0.81
2018-12-08T19:16:32.680Z,0.82
2018-12-08T19:19:01.536Z,0.81
2018-12-08T19:21:30.186Z,0.81
2018-12-08T19:23:58.952Z,0.82
2018-12-08T19:26:27.707Z,0.84
2018-12-08T19:28:56.506Z,0.85
2018-12-08T19:31:25.278Z,0.81
2018-12-08T19:33:54.002Z,0.79
2018-12-08T19:36:22.811Z,0.81
2018-12-08T19:38:51.691Z,0.82
2018-12-08T19:41:20.385Z,0.81
2018-12-08T19:43:49.182Z,0.77
2018-12-08T19:46:18.006Z,0.83
2018-12-08T19:48:46.922Z,0.88
2018-12-08T19:51:15.907Z,0.85
2018-12-08T19:53:44.742Z,0.85
2018-12-08T19:56:13.587Z,0.88
2018-12-08T19:58:42.449Z,0.89
2018-12-08T20:01:11.196Z,0.91
2018-12-08T20:03:40.125Z,0.89
2018-12-08T20:06:09.037Z,0.87
2018-12-08T20:08:39.184Z,0.88
2018-12-08T20:11:08.071Z,0.89
2018-12-08T20:13:37.128Z,0.91
2018-12-08T20:16:05.863Z,0.92
2018-12-08T20:18:34.685Z,0.90
2018-12-08T20:21:03.421Z,0.89
2018-12-08T20:23:32.172Z,0.89
2018-12-08T20:26:01.014Z,0.93
2018-12-08T20:28:29.866Z,0.94
2018-12-08T20:30:58.929Z,0.96
2018-12-08T20:33:27.870Z,0.96
2018-12-08T20:35:56.862Z,0.97
2018-12-08T20:38:25.805Z,0.97
2018-12-08T20:40:54.532Z,0.98
2018-12-08T20:43:23.533Z,0.97
2018-12-08T20:45:52.373Z,0.95
2018-12-08T20:48:21.372Z,0.98
2018-12-08T20:50:50.255Z,0.96
2018-12-08T20:53:19.020Z,0.96
2018-12-08T20:55:47.892Z,0.90
2018-12-08T20:58:16.668Z,0.94
2018-12-08T21:00:45.431Z,0.92
2018-12-08T21:03:14.356Z,0.94
2018-12-08T21:05:43.218Z,0.89
2018-12-08T21:08:12.161Z,0.91
2018-12-08T21:10:41.490Z,0.89
2018-12-08T21:13:10.522Z,0.92
2018-12-08T21:15:39.606Z,0.94
2018-12-08T21:18:08.695Z,0.88
2018-12-08T21:20:37.657Z,0.91
2018-12-08T21:23:06.233Z,0.91
2018-12-08T21:25:35.576Z,0.89
2018-12-08T21:28:04.422Z,0.84
2018-12-08T21:30:33.263Z,0.86
2018-12-08T21:33:02.204Z,0.90
2018-12-08T21:35:30.911Z,0.93
2018-12-08T21:37:59.629Z,0.91
2018-12-08T21:40:29.953Z,0.88
2018-12-08T21:42:58.778Z,0.93
2018-12-08T21:45:28.644Z,0.92
2018-12-08T21:47:57.419Z,0.88
2018-12-08T21:50:26.296Z,0.93
2018-12-08T21:52:55.078Z,0.92
2018-12-08T21:55:23.703Z,0.92
2018-12-08T21:57:52.480Z,0.95
2018-12-08T22:00:21.129Z,0.90
2018-12-08T22:02:49.986Z,0.92
2018-12-08T22:05:19.227Z,0.90
2018-12-08T22:07:48.213Z,0.90
2018-12-08T22:10:17.070Z,0.83
2018-12-08T22:12:45.795Z,0.88
2018-12-08T22:15:15.985Z,0.89
2018-12-08T22:17:47.321Z,0.89
2018-12-08T22:20:16.353Z,0.92
2018-12-08T22:22:45.119Z,0.89
2018-12-08T22:25:13.880Z,0.90
2018-12-08T22:27:42.843Z,0.90
2018-12-08T22:30:11.551Z,0.86
2018-12-08T22:32:40.581Z,0.88
2018-12-08T22:35:09.478Z,0.89
2018-12-08T22:37:38.381Z,0.88
2018-12-08T22:40:08.453Z,0.89
2018-12-08T22:42:37.169Z,0.91
2018-12-08T22:45:06.717Z,0.88
2018-12-08T22:47:35.593Z,0.90
2018-12-08T22:50:04.584Z,0.86
2018-12-08T22:52:33.241Z,0.89
2018-12-08T22:55:01.941Z,0.89
2018-12-08T22:57:30.774Z,0.84
2018-12-08T22:59:59.860Z,0.91
2018-12-08T23:02:28.778Z,0.91
2018-12-08T23:04:57.538Z,0.91
2018-12-08T23:07:26.320Z,0.90
2018-12-08T23:09:55.079Z,0.85
2018-12-08T23:12:24.138Z,0.85
2018-12-08T23:14:52.983Z,0.85
2018-12-08T23:17:21.696Z,0.90
2018-12-08T23:19:50.302Z,0.91
2018-12-08T23:22:19.008Z,0.95
2018-12-08T23:24:47.721Z,0.97
2018-12-08T23:27:16.509Z,0.89
2018-12-08T23:29:45.940Z,0.96
2018-12-08T23:32:14.863Z,0.97
2018-12-08T23:34:43.749Z,1.01
2018-12-08T23:37:12.955Z,1.00
2018-12-08T23:39:42.337Z,-2.04
2018-12-08T23:42:11.282Z,0.98
2018-12-08T23:44:40.051Z,0.96
2018-12-08T23:47:09.083Z,1.00
2018-12-08T23:49:37.774Z,0.98
2018-12-08T23:52:06.579Z,1.01
2018-12-08T23:54:35.787Z,1.01
2018-12-08T23:57:04.605Z,1.01
2018-12-08T23:59:33.821Z,1.01
